Huslia, Alaska
Current Conditions -  °F | °C
As of 5:16 PM on Friday 28 Nov 2014 (Local Time) from PAHL Reporting Station
Overcast Overcast  
Wind Chill:   Ceiling: 1200
Heat Index:   Visibility: 10mi
Dew Point:   Wind: 3mph
Humidity: 79%   Direction: 70°ENE
Pressure: 30.15"   Gusts: NA
Location:  65.7°N, 156.4°W
Report Text: PAHL 290216Z AUTO 07003KT 10SM OVC012 M14/M17 A3015 RMK AO1
Loading
Personal Weather Stations






























Interactive Weather Map New forecast layout! Learn more

10-Day Weather Forecast

Advertisements
Track Severe Weather on mobile